createdAt,value
2023-05-13T00:00:24.907Z,34.00
2023-05-13T00:02:52.514Z,33.60
2023-05-13T00:05:19.831Z,34.10
2023-05-13T00:07:47.193Z,33.80
2023-05-13T00:10:14.343Z,34.30
2023-05-13T00:12:41.415Z,34.20
2023-05-13T00:15:08.993Z,34.20
2023-05-13T00:17:35.976Z,34.20
2023-05-13T00:20:03.105Z,33.90
2023-05-13T00:22:30.509Z,34.00
2023-05-13T00:24:57.486Z,33.90
2023-05-13T00:27:24.532Z,33.70
2023-05-13T00:29:51.553Z,34.20
2023-05-13T00:32:18.722Z,34.00
2023-05-13T00:34:45.726Z,33.90
2023-05-13T00:37:14.282Z,34.20
2023-05-13T00:39:42.136Z,34.00
2023-05-13T00:42:12.302Z,34.00
2023-05-13T00:44:39.408Z,33.90
2023-05-13T00:47:06.660Z,33.90
2023-05-13T00:49:34.299Z,33.60
2023-05-13T00:52:02.316Z,34.00
2023-05-13T00:54:30.237Z,34.00
2023-05-13T00:56:58.370Z,33.80
2023-05-13T00:59:27.946Z,33.80
2023-05-13T01:02:30.014Z,33.80
2023-05-13T01:05:29.909Z,33.70
2023-05-13T01:08:01.711Z,33.70
2023-05-13T01:10:35.913Z,33.70
2023-05-13T01:13:10.279Z,33.60
2023-05-13T01:15:46.325Z,33.50
2023-05-13T01:18:19.372Z,33.60
2023-05-13T01:20:46.720Z,33.50
2023-05-13T01:23:13.885Z,33.50
2023-05-13T01:25:41.716Z,33.30
2023-05-13T01:28:09.840Z,33.30
2023-05-13T01:30:37.251Z,33.70
2023-05-13T01:33:05.194Z,33.10
2023-05-13T01:35:32.689Z,33.10
2023-05-13T01:38:02.647Z,33.00
2023-05-13T01:40:32.417Z,33.10
2023-05-13T01:43:00.857Z,33.30
2023-05-13T01:45:32.347Z,33.40
2023-05-13T01:47:59.736Z,33.80
2023-05-13T01:50:27.139Z,33.60
2023-05-13T01:52:54.634Z,33.40
2023-05-13T01:55:21.577Z,33.70
2023-05-13T01:57:48.576Z,34.00
2023-05-13T02:00:16.154Z,33.70
2023-05-13T02:02:43.207Z,33.70
2023-05-13T02:05:10.269Z,33.70
2023-05-13T02:07:37.589Z,33.30
2023-05-13T02:10:05.120Z,33.50
2023-05-13T02:12:32.140Z,32.90
2023-05-13T02:14:59.351Z,33.00
2023-05-13T02:17:26.350Z,32.90
2023-05-13T02:19:53.331Z,32.60
2023-05-13T02:22:20.468Z,32.70
2023-05-13T02:24:48.972Z,32.90
2023-05-13T02:27:16.637Z,32.80
2023-05-13T02:29:43.771Z,32.60
2023-05-13T02:32:10.961Z,33.30
2023-05-13T02:34:38.063Z,33.00
2023-05-13T02:37:06.158Z,33.10
2023-05-13T02:39:33.198Z,33.20
2023-05-13T02:42:00.395Z,33.20
2023-05-13T02:44:27.643Z,33.30
2023-05-13T02:46:54.609Z,33.40
2023-05-13T02:49:21.768Z,33.30
2023-05-13T02:51:48.864Z,33.10
2023-05-13T02:54:15.983Z,32.90
2023-05-13T02:56:42.923Z,33.30
2023-05-13T02:59:09.940Z,33.30
2023-05-13T03:01:37.019Z,32.90
2023-05-13T03:04:04.628Z,33.20
2023-05-13T03:06:32.276Z,32.90
2023-05-13T03:08:59.400Z,32.80
2023-05-13T03:11:26.923Z,32.80
2023-05-13T03:13:55.308Z,32.40
2023-05-13T03:16:22.716Z,33.50
2023-05-13T03:18:49.968Z,34.10
2023-05-13T03:21:17.638Z,33.60
2023-05-13T03:23:44.627Z,34.30
2023-05-13T03:26:11.736Z,33.60
2023-05-13T03:28:38.755Z,33.30
2023-05-13T03:31:07.697Z,33.30
2023-05-13T03:33:34.737Z,33.80
2023-05-13T03:36:01.763Z,33.90
2023-05-13T03:38:29.420Z,33.20
2023-05-13T03:40:56.690Z,33.10
2023-05-13T03:43:23.778Z,32.90
2023-05-13T03:45:51.716Z,32.40
2023-05-13T03:48:19.835Z,32.50
2023-05-13T03:50:46.913Z,32.70
2023-05-13T03:53:13.839Z,32.90
2023-05-13T03:55:41.223Z,33.00
2023-05-13T03:58:13.564Z,33.30
2023-05-13T04:00:40.961Z,32.90
2023-05-13T04:03:08.021Z,32.80
2023-05-13T04:05:35.241Z,32.90
2023-05-13T04:08:02.459Z,32.70
2023-05-13T04:10:29.474Z,33.00
2023-05-13T04:12:57.886Z,33.40
2023-05-13T04:15:24.942Z,33.70
2023-05-13T04:17:54.224Z,33.90
2023-05-13T04:20:21.556Z,34.40
2023-05-13T04:22:48.994Z,34.80
2023-05-13T04:25:16.227Z,35.10
2023-05-13T04:27:44.038Z,34.90
2023-05-13T04:30:11.609Z,35.50
2023-05-13T04:32:39.318Z,35.20
2023-05-13T04:35:08.244Z,35.30
2023-05-13T04:37:35.300Z,35.00
2023-05-13T04:40:02.410Z,35.40
2023-05-13T04:42:29.600Z,35.70
2023-05-13T04:44:56.800Z,35.90
2023-05-13T04:47:23.856Z,36.50
2023-05-13T04:49:50.855Z,36.60
2023-05-13T04:52:18.112Z,36.70
2023-05-13T04:54:45.159Z,36.80
2023-05-13T04:57:12.151Z,36.80
2023-05-13T04:59:39.268Z,36.90
2023-05-13T05:02:06.472Z,37.10
2023-05-13T05:04:33.582Z,37.30
2023-05-13T05:07:00.760Z,37.20
2023-05-13T05:09:28.521Z,37.60
2023-05-13T05:11:55.584Z,37.70
2023-05-13T05:14:22.674Z,38.20
2023-05-13T05:16:49.696Z,37.90
2023-05-13T05:19:16.882Z,38.10
2023-05-13T05:21:44.006Z,38.20
2023-05-13T05:24:11.119Z,38.20
2023-05-13T05:26:38.094Z,37.70
2023-05-13T05:29:05.171Z,37.50
2023-05-13T05:31:32.475Z,37.60
2023-05-13T05:34:01.095Z,37.60
2023-05-13T05:36:29.452Z,37.60
2023-05-13T05:38:58.158Z,37.80
2023-05-13T05:41:25.641Z,37.70
2023-05-13T05:43:53.598Z,37.60
2023-05-13T05:46:20.726Z,38.00
2023-05-13T05:48:49.953Z,38.50
2023-05-13T05:51:16.941Z,38.50
2023-05-13T05:53:44.041Z,38.90
2023-05-13T05:56:13.837Z,39.50
2023-05-13T05:58:42.357Z,39.60
2023-05-13T06:01:09.334Z,39.80
2023-05-13T06:03:36.423Z,39.70
2023-05-13T06:06:03.738Z,38.90
2023-05-13T06:08:31.095Z,39.40
2023-05-13T06:10:58.720Z,39.50
2023-05-13T06:13:26.373Z,39.80
2023-05-13T06:15:53.456Z,39.60
2023-05-13T06:18:21.085Z,40.20
2023-05-13T06:20:48.181Z,39.70
2023-05-13T06:23:15.195Z,38.70
2023-05-13T06:25:44.679Z,37.50
2023-05-13T06:28:12.368Z,37.50
2023-05-13T06:30:39.728Z,38.50
2023-05-13T06:33:08.379Z,38.10
2023-05-13T06:35:35.469Z,38.00
2023-05-13T06:38:02.530Z,38.90
2023-05-13T06:40:29.578Z,39.40
2023-05-13T06:42:56.614Z,39.80
2023-05-13T06:45:25.965Z,39.50
2023-05-13T06:47:53.817Z,39.80
2023-05-13T06:50:24.127Z,39.90
2023-05-13T06:52:51.467Z,40.50
2023-05-13T06:55:19.487Z,40.30
2023-05-13T06:57:47.479Z,41.10
2023-05-13T07:00:15.593Z,41.00
2023-05-13T07:02:42.815Z,41.50
2023-05-13T07:05:11.562Z,40.40
2023-05-13T07:07:39.076Z,40.50
2023-05-13T07:10:07.197Z,40.60
2023-05-13T07:12:34.237Z,39.70
2023-05-13T07:15:01.385Z,41.30
2023-05-13T07:17:28.790Z,40.00
2023-05-13T07:19:56.877Z,41.20
2023-05-13T07:22:24.806Z,41.80
2023-05-13T07:24:51.839Z,42.10
2023-05-13T07:27:18.858Z,41.80
2023-05-13T07:29:46.056Z,41.60
2023-05-13T07:32:15.622Z,41.80
2023-05-13T07:34:42.875Z,42.00
2023-05-13T07:37:10.049Z,42.60
2023-05-13T07:39:37.130Z,43.10
2023-05-13T07:42:04.482Z,42.70
2023-05-13T07:44:31.534Z,42.30
2023-05-13T07:46:58.588Z,41.90
2023-05-13T07:49:25.732Z,41.60
2023-05-13T07:51:52.806Z,42.30
2023-05-13T07:54:19.947Z,43.60
2023-05-13T07:56:48.258Z,43.10
2023-05-13T07:59:15.361Z,42.40
2023-05-13T08:01:43.049Z,42.90
2023-05-13T08:04:10.344Z,41.70
2023-05-13T08:06:37.640Z,42.70
2023-05-13T08:09:05.168Z,42.40
2023-05-13T08:11:32.216Z,42.80
2023-05-13T08:14:00.988Z,42.60
2023-05-13T08:16:28.136Z,43.20
2023-05-13T08:18:55.586Z,43.60
2023-05-13T08:21:22.713Z,43.10
2023-05-13T08:23:52.650Z,43.40
2023-05-13T08:26:19.820Z,42.90
2023-05-13T08:28:48.030Z,43.50
2023-05-13T08:31:15.603Z,43.70
2023-05-13T08:33:45.123Z,43.20
2023-05-13T08:36:15.839Z,43.90
2023-05-13T08:38:44.663Z,44.50
2023-05-13T08:41:15.575Z,44.40
2023-05-13T08:43:47.894Z,43.50
2023-05-13T08:46:17.243Z,43.30
2023-05-13T08:48:44.912Z,42.50
2023-05-13T08:51:12.558Z,41.10
2023-05-13T08:53:41.185Z,41.20
2023-05-13T08:56:13.400Z,42.10
2023-05-13T08:58:41.378Z,41.30
2023-05-13T09:01:08.546Z,41.50
2023-05-13T09:03:36.314Z,41.30
2023-05-13T09:06:03.699Z,41.30
2023-05-13T09:08:32.696Z,41.80
2023-05-13T09:10:59.990Z,41.40
2023-05-13T09:13:27.002Z,41.40
2023-05-13T09:15:54.354Z,42.30
2023-05-13T09:18:21.653Z,40.70
2023-05-13T09:20:48.802Z,40.80
2023-05-13T09:23:16.131Z,41.20
2023-05-13T09:25:43.704Z,42.10
2023-05-13T09:28:15.551Z,41.80
2023-05-13T09:30:45.649Z,41.80
2023-05-13T09:33:20.063Z,42.20
2023-05-13T09:35:53.090Z,42.30
2023-05-13T09:38:29.100Z,41.70
2023-05-13T09:40:58.038Z,41.90
2023-05-13T09:43:31.663Z,42.20
2023-05-13T09:46:03.530Z,41.80
2023-05-13T09:48:34.126Z,41.20
2023-05-13T09:51:01.194Z,41.00
2023-05-13T09:53:28.746Z,40.40
2023-05-13T09:55:57.646Z,40.40
2023-05-13T09:58:25.916Z,39.70
2023-05-13T10:00:53.102Z,40.60
2023-05-13T10:03:20.186Z,40.30
2023-05-13T10:05:49.152Z,39.70
2023-05-13T10:08:17.751Z,39.60
2023-05-13T10:10:46.679Z,40.20
2023-05-13T10:13:20.619Z,39.70
2023-05-13T10:15:55.360Z,38.90
2023-05-13T10:18:24.125Z,38.60
2023-05-13T10:20:53.948Z,38.10
2023-05-13T10:23:24.973Z,38.50
2023-05-13T10:25:55.432Z,39.80
2023-05-13T10:28:22.715Z,39.90
2023-05-13T10:30:52.940Z,39.00
2023-05-13T10:33:21.048Z,40.30
2023-05-13T10:36:01.877Z,40.00
2023-05-13T10:39:10.526Z,40.30
2023-05-13T10:42:09.213Z,39.60
2023-05-13T10:44:36.510Z,39.50
2023-05-13T10:47:04.053Z,39.00
2023-05-13T10:49:35.112Z,39.90
2023-05-13T10:52:12.767Z,39.10
2023-05-13T10:54:42.329Z,40.30
2023-05-13T10:57:10.049Z,40.90
2023-05-13T10:59:38.810Z,41.40
2023-05-13T11:02:32.586Z,41.00
2023-05-13T11:05:01.082Z,41.20
2023-05-13T11:07:29.974Z,40.60
2023-05-13T11:09:57.069Z,39.80
2023-05-13T11:12:24.305Z,40.50
2023-05-13T11:14:56.288Z,40.10
2023-05-13T11:17:23.289Z,40.40
2023-05-13T11:19:51.775Z,41.40
2023-05-13T11:22:22.416Z,41.60
2023-05-13T11:25:04.914Z,41.70
2023-05-13T11:27:42.090Z,42.10
2023-05-13T11:30:22.158Z,41.70
2023-05-13T11:32:52.678Z,41.00
2023-05-13T11:35:27.572Z,40.30
2023-05-13T11:37:59.975Z,41.00
2023-05-13T11:40:30.612Z,42.10
2023-05-13T11:42:59.047Z,41.00
2023-05-13T11:45:27.857Z,40.70
2023-05-13T11:47:56.139Z,40.00
2023-05-13T11:50:24.403Z,39.80
2023-05-13T11:53:03.109Z,39.00
2023-05-13T11:55:32.728Z,38.90
2023-05-13T11:58:00.555Z,38.30
2023-05-13T12:00:29.517Z,39.60
2023-05-13T12:02:57.630Z,40.90
2023-05-13T12:05:25.570Z,41.50
2023-05-13T12:07:58.112Z,41.10
2023-05-13T12:10:26.204Z,41.40
2023-05-13T12:12:54.044Z,40.30
2023-05-13T12:15:22.962Z,39.00
2023-05-13T12:17:50.553Z,39.20
2023-05-13T12:20:22.435Z,38.40
2023-05-13T12:22:52.782Z,37.20
2023-05-13T12:25:39.918Z,37.80
2023-05-13T12:34:08.633Z,39.30
2023-05-13T12:36:39.378Z,40.50
2023-05-13T12:44:53.360Z,41.20
2023-05-13T12:47:23.197Z,39.80
2023-05-13T12:50:02.649Z,39.50
2023-05-13T12:52:29.605Z,39.10
2023-05-13T12:54:56.600Z,38.20
2023-05-13T12:57:24.510Z,37.00
2023-05-13T12:59:51.508Z,36.90
2023-05-13T13:02:18.447Z,38.20
2023-05-13T13:04:45.552Z,39.20
2023-05-13T13:07:14.805Z,39.80
2023-05-13T13:09:41.822Z,40.70
2023-05-13T13:12:08.861Z,40.90
2023-05-13T13:14:36.064Z,40.50
2023-05-13T13:17:03.059Z,40.90
2023-05-13T13:19:29.988Z,40.00
2023-05-13T13:21:57.120Z,40.20
2023-05-13T13:24:24.138Z,39.80
2023-05-13T13:26:51.187Z,39.20
2023-05-13T13:29:18.253Z,39.60
2023-05-13T13:31:46.060Z,39.60
2023-05-13T13:34:13.674Z,38.20
2023-05-13T13:36:40.900Z,39.40
2023-05-13T13:39:07.866Z,39.20
2023-05-13T13:41:34.828Z,37.60
2023-05-13T13:44:01.807Z,38.50
2023-05-13T13:46:28.929Z,39.90
2023-05-13T13:48:56.029Z,39.40
2023-05-13T13:51:23.164Z,40.00
2023-05-13T13:53:50.721Z,39.00
2023-05-13T13:56:17.871Z,39.30
2023-05-13T13:58:44.905Z,38.90
2023-05-13T14:01:11.904Z,38.50
2023-05-13T14:03:39.208Z,39.00
2023-05-13T14:06:06.496Z,38.70
2023-05-13T14:08:33.959Z,38.40
2023-05-13T14:11:00.922Z,38.00
2023-05-13T14:13:27.959Z,38.00
2023-05-13T14:15:54.981Z,37.60
2023-05-13T14:18:22.938Z,38.00
2023-05-13T14:20:50.819Z,39.00
2023-05-13T14:23:18.788Z,39.50
2023-05-13T14:25:46.540Z,39.30
2023-05-13T14:33:59.471Z,42.00
2023-05-13T14:36:26.962Z,43.40
2023-05-13T14:38:54.669Z,43.40
2023-05-13T14:41:22.797Z,42.10
2023-05-13T14:43:49.902Z,42.70
2023-05-13T14:46:17.327Z,43.80
2023-05-13T15:08:44.187Z,42.10
2023-05-13T15:11:11.168Z,42.20
2023-05-13T15:13:39.361Z,42.40
2023-05-13T15:16:07.391Z,40.90
2023-05-13T15:18:34.494Z,41.00
2023-05-13T15:21:01.468Z,40.90
2023-05-13T15:29:11.762Z,41.00
2023-05-13T15:31:38.717Z,40.00
2023-05-13T15:34:05.699Z,40.30
2023-05-13T15:36:35.545Z,39.60
2023-05-13T15:39:02.822Z,39.10
2023-05-13T15:41:30.143Z,38.80
2023-05-13T15:43:57.189Z,38.90
2023-05-13T15:46:24.407Z,38.40
2023-05-13T15:48:51.452Z,38.90
2023-05-13T15:51:18.526Z,39.40
2023-05-13T15:53:45.640Z,39.80
2023-05-13T15:56:12.689Z,39.70
2023-05-13T15:58:39.700Z,39.80
2023-05-13T16:01:06.681Z,39.50
2023-05-13T16:03:33.647Z,39.10
2023-05-13T16:06:00.765Z,39.40
2023-05-13T16:08:27.926Z,38.70
2023-05-13T16:10:54.954Z,38.80
2023-05-13T16:13:23.901Z,38.70
2023-05-13T16:15:53.827Z,38.20
2023-05-13T16:18:20.873Z,37.90
2023-05-13T16:20:48.026Z,37.30
2023-05-13T16:23:15.210Z,37.70
2023-05-13T16:25:43.424Z,37.30
2023-05-13T16:28:11.058Z,37.10
2023-05-13T16:30:38.837Z,38.40
2023-05-13T16:33:06.082Z,38.30
2023-05-13T16:35:34.452Z,38.40
2023-05-13T16:38:01.576Z,38.20
2023-05-13T16:40:28.554Z,38.40
2023-05-13T16:42:58.009Z,39.60
2023-05-13T16:45:26.420Z,39.90
2023-05-13T16:47:53.495Z,40.40
2023-05-13T16:50:20.898Z,41.00
2023-05-13T16:52:48.040Z,40.80
2023-05-13T16:55:15.301Z,40.70
2023-05-13T16:57:42.368Z,40.30
2023-05-13T17:00:10.021Z,39.90
2023-05-13T17:02:37.170Z,39.90
2023-05-13T17:05:04.838Z,39.50
2023-05-13T17:07:31.899Z,39.90
2023-05-13T17:09:59.211Z,39.60
2023-05-13T17:12:27.346Z,39.80
2023-05-13T17:14:54.286Z,39.50
2023-05-13T17:17:21.408Z,39.30
2023-05-13T17:19:49.197Z,39.00
2023-05-13T17:22:16.155Z,39.40
2023-05-13T17:24:43.216Z,39.50
2023-05-13T17:27:10.775Z,39.10
2023-05-13T17:29:37.789Z,38.50
2023-05-13T17:32:05.193Z,37.60
2023-05-13T17:34:32.223Z,36.80
2023-05-13T17:36:59.263Z,36.40
2023-05-13T17:39:26.360Z,36.40
2023-05-13T17:41:53.366Z,36.80
2023-05-13T17:44:20.584Z,37.10
2023-05-13T17:46:47.693Z,37.40
2023-05-13T17:49:14.773Z,38.10
2023-05-13T17:51:42.190Z,38.50
2023-05-13T17:54:11.487Z,38.80
2023-05-13T17:56:38.460Z,38.80
2023-05-13T17:59:05.559Z,38.40
2023-05-13T18:01:32.576Z,38.90
2023-05-13T18:03:59.632Z,38.80
2023-05-13T18:06:26.674Z,38.50
2023-05-13T18:08:54.203Z,38.80
2023-05-13T18:11:22.211Z,38.50
2023-05-13T18:13:49.128Z,38.30
2023-05-13T18:16:19.407Z,38.50
2023-05-13T18:18:48.684Z,39.10
2023-05-13T18:21:16.181Z,38.90
2023-05-13T18:23:45.877Z,37.90
2023-05-13T18:26:12.886Z,38.20
2023-05-13T18:28:44.899Z,37.90
2023-05-13T18:31:12.114Z,38.00
2023-05-13T18:33:39.171Z,38.30
2023-05-13T18:36:06.640Z,38.40
2023-05-13T18:38:33.679Z,38.10
2023-05-13T18:41:03.349Z,38.00
2023-05-13T18:43:30.689Z,37.90
2023-05-13T18:45:58.226Z,38.20
2023-05-13T18:48:25.460Z,38.40
2023-05-13T18:50:53.182Z,38.40
2023-05-13T18:53:20.376Z,38.70
2023-05-13T18:55:47.404Z,39.00
2023-05-13T18:58:14.617Z,38.40
2023-05-13T19:00:41.984Z,37.90
2023-05-13T19:03:09.143Z,37.20
2023-05-13T19:05:36.483Z,36.90
2023-05-13T19:08:03.731Z,36.30
2023-05-13T19:10:31.102Z,36.10
2023-05-13T19:13:00.217Z,36.10
2023-05-13T19:15:27.274Z,36.00
2023-05-13T19:17:54.361Z,36.00
2023-05-13T19:20:21.593Z,35.50
2023-05-13T19:22:48.834Z,35.80
2023-05-13T19:25:16.017Z,35.90
2023-05-13T19:27:43.606Z,36.10
2023-05-13T19:30:11.259Z,36.40
2023-05-13T19:32:38.249Z,36.70
2023-05-13T19:35:05.686Z,37.40
2023-05-13T19:37:32.777Z,36.70
2023-05-13T19:39:59.944Z,37.00
2023-05-13T19:42:26.954Z,37.40
2023-05-13T19:44:54.043Z,37.80
2023-05-13T19:47:21.093Z,38.00
2023-05-13T19:49:48.240Z,38.70
2023-05-13T19:52:15.288Z,39.30
2023-05-13T19:54:42.393Z,38.70
2023-05-13T19:57:09.334Z,39.10
2023-05-13T19:59:39.481Z,39.20
2023-05-13T20:02:06.601Z,39.50
2023-05-13T20:04:33.670Z,39.70
2023-05-13T20:07:00.785Z,39.30
2023-05-13T20:09:27.895Z,38.90
2023-05-13T20:11:54.905Z,38.40
2023-05-13T20:14:29.005Z,37.70
2023-05-13T20:16:56.232Z,38.20
2023-05-13T20:19:23.409Z,38.70
2023-05-13T20:21:50.609Z,38.50
2023-05-13T20:24:17.545Z,38.50
2023-05-13T20:26:44.660Z,37.60
2023-05-13T20:29:12.702Z,36.80
2023-05-13T20:31:42.961Z,35.80
2023-05-13T20:34:10.047Z,35.80
2023-05-13T20:36:40.458Z,35.80
2023-05-13T20:39:07.986Z,35.90
2023-05-13T20:41:35.162Z,36.40
2023-05-13T22:30:46.709Z,35.80
2023-05-13T22:33:13.805Z,36.20
2023-05-13T22:35:40.765Z,35.90
2023-05-13T22:38:07.837Z,35.70
2023-05-13T22:40:34.883Z,35.80
2023-05-13T22:43:01.913Z,35.10
2023-05-13T22:45:30.943Z,35.20
2023-05-13T22:47:58.019Z,35.70
2023-05-13T22:50:25.301Z,35.80
2023-05-13T22:52:52.517Z,35.40
2023-05-13T22:55:19.629Z,35.20
2023-05-13T22:57:46.598Z,36.00
2023-05-13T23:00:14.273Z,36.30
2023-05-13T23:02:41.553Z,36.50
2023-05-13T23:05:10.138Z,36.90
2023-05-13T23:07:37.208Z,36.40
2023-05-13T23:10:04.439Z,36.70
2023-05-13T23:12:31.447Z,36.40
2023-05-13T23:14:58.454Z,36.10
2023-05-13T23:17:25.802Z,35.90
2023-05-13T23:19:52.913Z,35.70
2023-05-13T23:22:19.951Z,35.40
2023-05-13T23:24:46.927Z,36.00
2023-05-13T23:27:13.916Z,36.20
2023-05-13T23:29:41.741Z,36.70
2023-05-13T23:32:09.186Z,37.30
2023-05-13T23:34:36.274Z,37.70
2023-05-13T23:37:03.329Z,37.80
2023-05-13T23:39:30.293Z,38.00
2023-05-13T23:41:57.307Z,38.10
2023-05-13T23:44:24.248Z,38.30
2023-05-13T23:46:51.268Z,38.00
2023-05-13T23:49:18.218Z,37.90
2023-05-13T23:51:45.208Z,37.60
2023-05-13T23:54:12.317Z,37.70
2023-05-13T23:56:39.525Z,37.80
2023-05-13T23:59:06.567Z,37.80
